Time;durP1;ratioP1;P1;durP2;ratioP2;P2;SDS_P1;SDS_P2;PMS_P1;PMS_P2;Temp;Humidity;BMP_temperature;BMP_pressure;BME280_temperature;BME280_humidity;BME280_pressure;Samples;Min_cycle;Max_cycle;Signal;HPM_P1;HPM_P2
2021/11/24 00:02:16;;;;;;;;;;;;;;;4.88;88.98;101476.08;1736740;81;20760;-74
2021/11/24 00:04:42;;;;;;;;;;;;;;;4.88;88.99;101472.59;1715268;82;20145;-74
2021/11/24 00:07:08;;;;;;;;;;;;;;;4.89;88.98;101469.00;1724124;82;20199;-73
2021/11/24 00:09:33;;;;;;;;;;;;;;;4.90;89.00;101471.99;1721965;82;21255;-73
2021/11/24 00:11:59;;;;;;;;;;;;;;;4.91;88.98;101469.73;1707597;83;20163;-73
2021/11/24 00:14:25;;;;;;;;;;;;;;;4.91;88.97;101472.38;1709681;83;20187;-73
2021/11/24 00:16:51;;;;;;;;;;;;;;;4.93;88.98;101467.81;1713237;83;20270;-73
2021/11/24 00:19:17;;;;;;;;;;;;;;;4.92;88.99;101459.53;1718982;83;20227;-73
2021/11/24 00:21:42;;;;;;;;;;;;;;;4.91;88.95;101464.44;1719916;83;22044;-73
2021/11/24 00:24:08;;;;;;;;;;;;;;;4.92;88.97;101474.07;1719836;83;20254;-74
2021/11/24 00:26:34;;;;;;;;;;;;;;;4.91;88.96;101462.65;1719606;83;20835;-73
2021/11/24 00:29:00;;;;;;;;;;;;;;;4.92;88.97;101460.86;1703945;83;20165;-73
2021/11/24 00:31:27;;;;;;;;;;;;;;;4.93;88.97;101458.56;1689041;85;20150;-73
2021/11/24 00:33:54;;;;;;;;;;;;;;;4.93;88.98;101459.88;1702430;83;21153;-74
2021/11/24 00:36:20;;;;;;;;;;;;;;;4.93;88.98;101466.02;1704658;83;20184;-73
2021/11/24 00:38:45;;;;;;;;;;;;;;;4.94;88.98;101457.61;1725838;82;20215;-73
2021/11/24 00:41:11;;;;;;;;;;;;;;;4.95;88.98;101458.84;1724246;83;20159;-73
2021/11/24 00:43:37;;;;;;;;;;;;;;;4.96;88.98;101459.69;1725044;83;20214;-73
2021/11/24 00:46:03;;;;;;;;;;;;;;;4.96;88.99;101453.08;1740145;81;21293;-74
2021/11/24 00:48:29;;;;;;;;;;;;;;;4.96;88.99;101454.41;1756319;81;20208;-73
2021/11/24 00:50:54;;;;;;;;;;;;;;;4.97;89.00;101453.43;1748118;81;20217;-74
2021/11/24 00:53:20;;;;;;;;;;;;;;;4.97;89.01;101453.43;1739423;82;20225;-74
2021/11/24 00:55:46;;;;;;;;;;;;;;;4.97;89.00;101451.64;1739503;82;20297;-74
2021/11/24 00:58:12;;;;;;;;;;;;;;;4.97;89.00;101445.50;1738951;82;21831;-73
2021/11/24 01:00:38;;;;;;;;;;;;;;;4.98;89.01;101444.56;1732690;81;20182;-74
2021/11/24 01:03:03;;;;;;;;;;;;;;;4.99;89.02;101440.97;1731872;82;20162;-74
2021/11/24 01:05:30;;;;;;;;;;;;;;;4.98;89.02;101432.66;1737143;82;20438;-74
2021/11/24 01:07:56;;;;;;;;;;;;;;;4.99;89.01;101439.64;1702121;82;20173;-74
2021/11/24 01:10:22;;;;;;;;;;;;;;;4.99;89.03;101435.69;1712775;83;21228;-74
2021/11/24 01:12:48;;;;;;;;;;;;;;;4.98;89.03;101428.70;1719407;82;20226;-73
2021/11/24 01:15:14;;;;;;;;;;;;;;;5.01;89.05;101444.34;1721179;83;20798;-73
2021/11/24 01:17:40;;;;;;;;;;;;;;;5.01;89.04;101439.05;1722083;83;20202;-74
2021/11/24 01:20:06;;;;;;;;;;;;;;;5.01;89.03;101439.05;1721924;83;20187;-74
2021/11/24 01:22:32;;;;;;;;;;;;;;;5.02;89.03;101444.23;1725211;82;21071;-73
2021/11/24 01:24:58;;;;;;;;;;;;;;;5.04;89.04;101445.44;1723583;83;20246;-74
2021/11/24 01:27:24;;;;;;;;;;;;;;;5.03;89.04;101442.45;1720121;82;20929;-74
2021/11/24 01:29:49;;;;;;;;;;;;;;;5.05;89.05;101441.84;1720697;83;20553;-74
2021/11/24 01:32:15;;;;;;;;;;;;;;;5.04;89.06;101431.75;1720172;83;20171;-74
2021/11/24 01:34:41;;;;;;;;;;;;;;;5.04;89.05;101422.97;1719322;83;21252;-74
2021/11/24 01:37:06;;;;;;;;;;;;;;;5.04;89.04;101430.89;1718420;83;20886;-74
2021/11/24 01:39:32;;;;;;;;;;;;;;;5.03;89.06;101427.91;1719424;83;20262;-74
2021/11/24 01:41:58;;;;;;;;;;;;;;;5.03;89.06;101430.55;1718037;83;20156;-74
2021/11/24 01:44:25;;;;;;;;;;;;;;;5.06;89.07;101430.80;1717771;83;20191;-74
2021/11/24 01:46:55;;;;;;;;;;;;;;;5.04;89.09;101423.81;1717743;83;21270;-74
2021/11/24 01:49:21;;;;;;;;;;;;;;;5.05;89.07;101419.38;1718906;83;20301;-74
2021/11/24 01:51:47;;;;;;;;;;;;;;;5.06;89.09;101418.44;1719309;83;20207;-74
2021/11/24 01:54:14;;;;;;;;;;;;;;;5.05;89.10;101420.70;1725945;83;20150;-74
2021/11/24 01:56:40;;;;;;;;;;;;;;;5.07;89.12;101422.74;1730927;82;20172;-74
2021/11/24 01:59:09;;;;;;;;;;;;;;;5.07;89.10;101424.06;1731014;83;21163;-74
2021/11/24 02:01:35;;;;;;;;;;;;;;;5.08;89.11;101420.95;1719349;82;20205;-73
2021/11/24 02:04:01;;;;;;;;;;;;;;;5.09;89.10;101426.61;1692799;84;20186;-73
2021/11/24 02:06:27;;;;;;;;;;;;;;;5.09;89.10;101420.00;1692399;83;20202;-74
2021/11/24 02:08:52;;;;;;;;;;;;;;;5.10;89.10;101419.91;1674187;85;20836;-74
2021/11/24 02:11:18;;;;;;;;;;;;;;;5.10;89.11;101417.73;1687737;83;21324;-73
2021/11/24 02:13:44;;;;;;;;;;;;;;;5.10;89.11;101414.62;1658666;86;20242;-74
2021/11/24 02:16:10;;;;;;;;;;;;;;;5.12;89.11;101415.34;1687509;85;20251;-74
2021/11/24 02:18:36;;;;;;;;;;;;;;;5.12;89.13;101410.52;1658582;86;20166;-73
2021/11/24 02:21:01;;;;;;;;;;;;;;;5.12;89.12;101411.38;1717175;83;20350;-73
2021/11/24 02:23:27;;;;;;;;;;;;;;;5.12;89.12;101403.45;1724743;83;21082;-74
2021/11/24 02:25:53;;;;;;;;;;;;;;;5.11;89.12;101401.74;1694976;82;20189;-73
2021/11/24 02:28:19;;;;;;;;;;;;;;;5.12;89.13;101400.80;1692811;84;20261;-73
2021/11/24 02:30:44;;;;;;;;;;;;;;;5.11;89.11;101403.06;1692894;84;20689;-74
2021/11/24 02:33:10;;;;;;;;;;;;;;;5.11;89.15;101399.10;1692678;84;20174;-73
2021/11/24 02:35:36;;;;;;;;;;;;;;;5.12;89.14;101398.16;1693006;84;20738;-74
2021/11/24 02:38:03;;;;;;;;;;;;;;;5.11;89.15;101393.81;1692777;84;20420;-73
2021/11/24 02:40:33;;;;;;;;;;;;;;;5.11;89.13;101387.20;1691853;83;20268;-74
2021/11/24 02:42:59;;;;;;;;;;;;;;;5.11;89.13;101376.63;1638736;86;20232;-74
2021/11/24 02:45:25;;;;;;;;;;;;;;;5.11;89.16;101381.91;1647584;85;20280;-74
2021/11/24 02:47:50;;;;;;;;;;;;;;;5.10;89.13;101388.18;1666211;85;21292;-74
2021/11/24 02:50:16;;;;;;;;;;;;;;;5.12;89.14;101390.70;1677531;85;20210;-73
2021/11/24 02:52:42;;;;;;;;;;;;;;;5.10;89.14;101385.54;1721334;83;20188;-74
2021/11/24 02:55:08;;;;;;;;;;;;;;;5.11;89.12;101382.39;1721012;83;20191;-74
2021/11/24 02:57:36;;;;;;;;;;;;;;;5.10;89.14;101378.93;1721126;82;20235;-73
2021/11/24 03:00:16;;;;;;;;;;;;;;;5.11;89.13;101378.42;1721253;83;21226;-73
2021/11/24 03:02:43;;;;;;;;;;;;;;;5.10;89.13;101372.32;1721000;83;20154;-73
2021/11/24 03:05:09;;;;;;;;;;;;;;;5.12;89.16;101374.83;1721320;83;20417;-74
2021/11/24 03:07:35;;;;;;;;;;;;;;;5.11;89.17;101376.63;1714980;83;20169;-74
2021/11/24 03:10:02;;;;;;;;;;;;;;;5.11;89.17;101368.70;1686155;84;20187;-74
2021/11/24 03:12:27;;;;;;;;;;;;;;;5.11;89.17;101368.70;1686174;84;21102;-74
2021/11/24 03:14:53;;;;;;;;;;;;;;;5.11;89.18;101368.70;1686025;84;20291;-74
2021/11/24 03:17:19;;;;;;;;;;;;;;;5.11;89.18;101362.09;1685982;84;20267;-74
2021/11/24 03:19:46;;;;;;;;;;;;;;;5.12;89.18;101365.11;1686128;85;20183;-73
2021/11/24 03:22:12;;;;;;;;;;;;;;;5.13;89.19;101365.48;1684038;85;20502;-74
2021/11/24 03:24:38;;;;;;;;;;;;;;;5.14;89.21;101368.97;1677883;85;21762;-74
2021/11/24 03:27:04;;;;;;;;;;;;;;;5.15;89.21;101359.59;1678094;85;20213;-74
2021/11/24 03:29:30;;;;;;;;;;;;;;;5.17;89.21;101361.66;1677776;85;20225;-74
2021/11/24 03:31:55;;;;;;;;;;;;;;;5.17;89.20;101358.17;1678097;85;20194;-74
2021/11/24 03:34:21;;;;;;;;;;;;;;;5.16;89.20;101358.64;1678109;85;20249;-73
2021/11/24 03:36:47;;;;;;;;;;;;;;;5.17;89.21;101356.85;1678172;85;21776;-73
2021/11/24 03:39:13;;;;;;;;;;;;;;;5.16;89.21;101350.72;1678101;85;20242;-73
2021/11/24 03:41:38;;;;;;;;;;;;;;;5.16;89.21;101349.86;1678776;85;20252;-73
2021/11/24 03:44:04;;;;;;;;;;;;;;;5.17;89.22;101349.77;1686232;84;20240;-73
2021/11/24 03:46:30;;;;;;;;;;;;;;;5.17;89.22;101355.05;1685510;84;20290;-73
2021/11/24 03:48:56;;;;;;;;;;;;;;;5.17;89.22;101354.20;1686235;84;21730;-73
2021/11/24 03:51:21;;;;;;;;;;;;;;;5.17;89.23;101351.56;1686082;84;20203;-73
2021/11/24 03:53:48;;;;;;;;;;;;;;;5.16;89.24;101336.64;1686093;84;20274;-73
2021/11/24 03:56:14;;;;;;;;;;;;;;;5.16;89.23;101334.85;1685787;85;20538;-73
2021/11/24 03:58:40;;;;;;;;;;;;;;;5.17;89.24;101339.66;1678064;85;20202;-73
2021/11/24 04:01:06;;;;;;;;;;;;;;;5.17;89.27;101336.55;1679724;85;21001;-73
2021/11/24 04:03:32;;;;;;;;;;;;;;;5.17;89.27;101335.23;1685689;84;20186;-73
2021/11/24 04:05:58;;;;;;;;;;;;;;;5.17;89.26;101331.26;1686191;85;20275;-74
2021/11/24 04:08:24;;;;;;;;;;;;;;;5.17;89.26;101332.58;1691937;82;20200;-73
2021/11/24 04:10:49;;;;;;;;;;;;;;;5.17;89.26;101332.58;1714385;83;20811;-73
2021/11/24 04:13:15;;;;;;;;;;;;;;;5.17;89.27;101336.55;1714392;83;21293;-73
2021/11/24 04:15:41;;;;;;;;;;;;;;;5.17;89.27;101344.48;1714268;83;20256;-73
2021/11/24 04:18:07;;;;;;;;;;;;;;;5.18;89.29;101343.50;1714583;83;20184;-73
2021/11/24 04:20:33;;;;;;;;;;;;;;;5.17;89.29;101336.55;1721898;82;20199;-73
2021/11/24 04:22:58;;;;;;;;;;;;;;;5.18;89.32;101332.08;1722972;83;20723;-73
2021/11/24 04:25:24;;;;;;;;;;;;;;;5.18;89.30;101331.60;1722921;83;21170;-73
2021/11/24 04:27:50;;;;;;;;;;;;;;;5.16;89.31;101326.92;1722804;83;20226;-73
2021/11/24 04:30:17;;;;;;;;;;;;;;;5.15;89.32;101335.80;1722946;83;20215;-73
2021/11/24 04:32:42;;;;;;;;;;;;;;;5.14;89.33;101335.42;1723223;83;20398;-73
2021/11/24 04:35:09;;;;;;;;;;;;;;;5.12;89.33;101328.09;1723258;83;20175;-73
2021/11/24 04:37:35;;;;;;;;;;;;;;;5.11;89.32;101329.05;1722488;82;21873;-73
2021/11/24 04:40:01;;;;;;;;;;;;;;;5.11;89.33;101329.05;1722974;83;20172;-73
2021/11/24 04:42:27;;;;;;;;;;;;;;;5.11;89.35;101331.69;1723019;82;20183;-73
2021/11/24 04:44:53;;;;;;;;;;;;;;;5.11;89.35;101326.87;1723096;83;20899;-73
2021/11/24 04:47:19;;;;;;;;;;;;;;;5.11;89.35;101322.91;1723258;82;20160;-73
2021/11/24 04:49:44;;;;;;;;;;;;;;;5.12;89.35;101322.80;1722996;83;21226;-73
2021/11/24 04:52:10;;;;;;;;;;;;;;;5.12;89.37;101320.16;1723005;83;20214;-73
2021/11/24 04:54:36;;;;;;;;;;;;;;;5.11;89.35;101318.47;1723218;83;20250;-73
2021/11/24 04:57:02;;;;;;;;;;;;;;;5.11;89.36;101313.18;1722991;83;20776;-73
2021/11/24 04:59:28;;;;;;;;;;;;;;;5.10;89.37;101316.80;1723046;83;20177;-73
2021/11/24 05:01:54;;;;;;;;;;;;;;;5.10;89.37;101316.80;1721587;83;21249;-73
2021/11/24 05:04:24;;;;;;;;;;;;;;;5.10;89.38;101319.45;1714276;83;20267;-73
2021/11/24 05:06:50;;;;;;;;;;;;;;;5.09;89.38;101322.19;1714599;83;20153;-73
2021/11/24 05:09:15;;;;;;;;;;;;;;;5.09;89.38;101325.68;1716599;82;20180;-74
2021/11/24 05:11:41;;;;;;;;;;;;;;;5.08;89.38;101318.70;1718557;83;20255;-73
2021/11/24 05:14:10;;;;;;;;;;;;;;;5.07;89.38;101311.71;1693907;83;21187;-73
2021/11/24 05:16:36;;;;;;;;;;;;;;;5.09;89.38;101311.14;1689711;84;20181;-74
2021/11/24 05:19:03;;;;;;;;;;;;;;;5.08;89.38;101305.48;1690180;83;20447;-74
2021/11/24 05:21:37;;;;;;;;;;;;;;;5.08;89.38;101312.09;1689942;85;20159;-73
2021/11/24 05:24:00;;;;;;;;;;;;;;;5.08;89.38;101310.77;1689033;83;20195;-74
2021/11/24 05:26:26;;;;;;;;;;;;;;;5.07;89.40;101311.71;1689771;83;20773;-73
2021/11/24 05:28:52;;;;;;;;;;;;;;;5.06;89.42;101311.37;1681389;85;20160;-74
2021/11/24 05:31:18;;;;;;;;;;;;;;;5.07;89.40;101310.39;1681412;85;20186;-73
2021/11/24 05:33:44;;;;;;;;;;;;;;;5.08;89.42;101314.73;1681539;85;20156;-73
2021/11/24 05:36:10;;;;;;;;;;;;;;;5.08;89.42;101313.41;1681374;85;21336;-74
2021/11/24 05:38:38;;;;;;;;;;;;;;;5.09;89.42;101303.69;1681370;84;21244;-74
2021/11/24 05:41:04;;;;;;;;;;;;;;;5.08;89.42;101313.41;1681644;85;20167;-74
2021/11/24 05:43:30;;;;;;;;;;;;;;;5.09;89.44;101312.46;1681488;84;20191;-74
2021/11/24 05:48:24;;;;;;;;;;;;;;;5.10;89.44;101312.84;1681654;85;20168;-74
2021/11/24 05:50:51;;;;;;;;;;;;;;;5.10;89.44;101316.80;1681552;85;21021;-73
2021/11/24 05:53:18;;;;;;;;;;;;;;;5.10;89.45;101314.16;1681492;85;20184;-73
2021/11/24 05:55:47;;;;;;;;;;;;;;;5.12;89.47;101325.45;1681492;85;20160;-74
2021/11/24 05:58:13;;;;;;;;;;;;;;;5.12;89.46;101322.80;1681540;85;20348;-74
2021/11/24 06:00:39;;;;;;;;;;;;;;;5.13;89.48;101319.22;1681379;85;20187;-74
2021/11/24 06:03:05;;;;;;;;;;;;;;;5.14;89.49;101322.70;1681576;85;21250;-74
2021/11/24 06:05:31;;;;;;;;;;;;;;;5.15;89.50;101316.44;1681500;85;20213;-74
2021/11/24 06:07:56;;;;;;;;;;;;;;;5.14;89.49;101320.88;1681538;84;20821;-74
2021/11/24 06:10:22;;;;;;;;;;;;;;;5.14;89.50;101320.88;1738081;82;20216;-72
2021/11/24 06:12:48;;;;;;;;;;;;;;;5.13;89.51;101323.18;1729044;81;20251;-72
2021/11/24 06:15:15;;;;;;;;;;;;;;;5.12;89.52;101316.67;1732250;81;21213;-73
2021/11/24 06:17:43;;;;;;;;;;;;;;;5.13;89.53;101310.44;1724847;83;20189;-73
2021/11/24 06:20:10;;;;;;;;;;;;;;;5.13;89.52;101317.05;1698413;84;20182;-73
2021/11/24 06:22:36;;;;;;;;;;;;;;;5.10;89.53;101316.80;1702905;83;20198;-73
2021/11/24 06:25:03;;;;;;;;;;;;;;;5.09;89.52;101320.39;1692499;83;20465;-72
2021/11/24 06:27:29;;;;;;;;;;;;;;;5.06;89.52;101317.98;1720915;83;20766;-72
2021/11/24 06:29:55;;;;;;;;;;;;;;;5.06;89.53;101323.27;1720959;83;20432;-72
2021/11/24 06:32:20;;;;;;;;;;;;;;;5.08;89.53;101323.13;1724377;83;20171;-73
2021/11/24 06:34:46;;;;;;;;;;;;;;;5.10;89.56;101319.45;1727158;82;20274;-73
2021/11/24 06:37:12;;;;;;;;;;;;;;;5.11;89.55;101321.11;1716571;82;20220;-73
2021/11/24 06:39:38;;;;;;;;;;;;;;;5.11;89.55;101323.75;1721055;83;21147;-73
2021/11/24 06:42:04;;;;;;;;;;;;;;;5.12;89.54;101325.92;1723408;82;20254;-73
2021/11/24 06:44:29;;;;;;;;;;;;;;;5.13;89.54;101329.80;1726643;83;20731;-73
2021/11/24 06:46:55;;;;;;;;;;;;;;;5.13;89.55;101324.50;1730219;81;20171;-73
2021/11/24 06:49:21;;;;;;;;;;;;;;;5.15;89.54;101327.02;1729323;81;20251;-73
2021/11/24 06:51:47;;;;;;;;;;;;;;;5.16;89.57;101331.36;1727068;83;21254;-73
2021/11/24 06:54:13;;;;;;;;;;;;;;;5.17;89.57;101332.58;1725646;82;20258;-73
2021/11/24 06:56:38;;;;;;;;;;;;;;;5.17;89.55;101333.91;1726872;83;20274;-73
2021/11/24 06:59:04;;;;;;;;;;;;;;;5.18;89.58;101328.95;1726725;83;20179;-73
2021/11/24 07:01:30;;;;;;;;;;;;;;;5.20;89.59;101332.35;1728857;81;20183;-73
2021/11/24 07:03:56;;;;;;;;;;;;;;;5.21;89.58;101330.05;1726352;82;21194;-73
2021/11/24 07:06:22;;;;;;;;;;;;;;;5.23;89.57;101333.45;1726729;83;20776;-73
2021/11/24 07:08:48;;;;;;;;;;;;;;;5.25;89.60;101334.16;1723610;83;20187;-73
2021/11/24 07:11:14;;;;;;;;;;;;;;;5.25;89.58;101328.87;1727242;82;20163;-73
2021/11/24 07:13:40;;;;;;;;;;;;;;;5.26;89.60;101335.01;1738317;81;20160;-73
2021/11/24 07:16:06;;;;;;;;;;;;;;;5.28;89.60;101331.29;1728014;81;21918;-73
2021/11/24 07:18:32;;;;;;;;;;;;;;;5.29;89.61;101335.63;1727323;83;20803;-73
2021/11/24 07:20:57;;;;;;;;;;;;;;;5.30;89.62;101339.97;1727289;82;20206;-73
2021/11/24 07:23:23;;;;;;;;;;;;;;;5.32;89.63;101338.04;1727274;83;20211;-72
2021/11/24 07:25:49;;;;;;;;;;;;;;;5.32;89.64;101340.69;1727564;82;20179;-73
2021/11/24 07:28:15;;;;;;;;;;;;;;;5.33;89.65;101338.89;1727192;83;21193;-73
2021/11/24 07:30:41;;;;;;;;;;;;;;;5.35;89.63;101344.42;1727366;82;20270;-73
2021/11/24 07:33:06;;;;;;;;;;;;;;;5.37;89.66;101341.67;1727591;83;20234;-73
2021/11/24 07:35:32;;;;;;;;;;;;;;;5.36;89.66;101340.83;1727220;82;20719;-73
2021/11/24 07:37:58;;;;;;;;;;;;;;;5.38;89.66;101342.88;1727441;83;20491;-72
2021/11/24 07:40:24;;;;;;;;;;;;;;;5.41;89.67;101343.99;1727382;83;21081;-72
2021/11/24 09:26:30;;;;;;;39.42;22.27;;;;;;;6.20;89.36;101328.69;1825247;77;22731;-72
2021/11/24 09:28:53;;;;;;;40.78;26.00;;;;;;;6.21;89.35;101334.84;1795358;79;21509;-73
2021/11/24 09:31:20;;;;;;;33.30;19.30;;;;;;;6.25;89.37;101334.48;1794947;80;21192;-73
2021/11/24 09:33:46;;;;;;;40.98;25.40;;;;;;;6.31;89.38;101335.80;1795325;80;20910;-73
2021/11/24 09:36:12;;;;;;;35.63;20.85;;;;;;;6.37;89.39;101336.16;1795241;80;21643;-73
2021/11/24 09:38:39;;;;;;;25.88;17.42;;;;;;;6.43;89.41;101334.38;1795156;80;21458;-72
2021/11/24 09:41:09;;;;;;;23.52;16.27;;;;;;;6.47;89.42;101328.36;1795268;80;21565;-73
2021/11/24 09:43:37;;;;;;;;;;;;;;;6.48;89.39;101324.25;1797673;80;21085;-73
2021/11/24 09:46:04;;;;;;;33.53;18.92;;;;;;;6.48;89.38;101322.92;1795285;80;20123;-73
2021/11/24 09:48:30;;;;;;;35.98;22.40;;;;;;;6.50;89.37;101328.96;1794965;80;20970;-73
2021/11/24 09:50:56;;;;;;;35.17;22.93;;;;;;;6.56;89.36;101319.67;1794916;80;21505;-73
2021/11/24 09:53:22;;;;;;;47.53;33.23;;;;;;;6.57;89.37;101312.57;1794885;80;20994;-73
2021/11/24 09:55:49;;;;;;;37.48;24.25;;;;;;;6.57;89.35;101312.09;1794991;80;21062;-73
2021/11/24 09:58:16;;;;;;;37.75;23.83;;;;;;;6.54;89.33;101309.18;1794749;80;21038;-73
2021/11/24 10:00:41;;;;;;;36.85;22.77;;;;;;;6.53;89.32;101309.32;1795152;80;20997;-73
2021/11/24 10:03:08;;;;;;;41.98;25.30;;;;;;;6.53;89.30;101311.49;1795418;80;20860;-73
2021/11/24 10:05:35;;;;;;;38.25;24.87;;;;;;;6.51;89.25;101304.13;1795202;80;21021;-73
2021/11/24 10:08:01;;;;;;;39.88;24.02;;;;;;;6.48;89.25;101309.67;1795168;80;21016;-73
2021/11/24 10:10:27;;;;;;;51.70;24.72;;;;;;;6.47;89.23;101300.03;1794972;79;21024;-73
2021/11/24 10:12:54;;;;;;;34.03;19.35;;;;;;;6.46;89.21;101295.72;1800539;78;20974;-73
2021/11/24 10:15:46;;;;;;;39.83;21.62;;;;;;;6.46;89.18;101299.69;1785904;79;21042;-73
2021/11/24 10:18:21;;;;;;;37.42;21.33;;;;;;;6.49;89.17;101299.45;1766512;80;20991;-73
2021/11/24 10:21:07;;;;;;;42.70;24.47;;;;;;;6.47;89.13;101294.73;1767258;80;22094;-73
2021/11/24 10:23:45;;;;;;;26.02;15.55;;;;;;;6.46;89.11;101294.87;1777777;78;21527;-73
2021/11/24 10:26:36;;;;;;;31.60;18.50;;;;;;;6.44;89.06;101292.81;1781614;79;21089;-73
2021/11/24 10:29:15;;;;;;;35.17;18.70;;;;;;;6.46;89.05;101290.42;1844023;77;21017;-73
2021/11/24 10:31:47;;;;;;;32.38;18.32;;;;;;;6.54;89.01;101284.52;1823533;77;21040;-74
2021/11/24 10:34:31;;;;;;;34.63;22.20;;;;;;;6.59;88.98;101291.59;1822924;78;21006;-73
2021/11/24 10:37:07;;;;;;;35.38;24.92;;;;;;;6.61;88.94;101287.52;1822431;78;21050;-73
2021/11/24 10:39:40;;;;;;;29.35;17.37;;;;;;;6.62;88.91;101284.72;1764315;80;21585;-73
2021/11/24 10:42:13;;;;;;;21.37;13.18;;;;;;;6.63;88.87;101282.92;1767934;79;21537;-73
2021/11/24 10:44:42;;;;;;;20.43;14.18;;;;;;;6.59;88.84;101278.83;1770998;79;21045;-73
2021/11/24 10:47:08;;;;;;;19.40;13.23;;;;;;;6.57;88.82;101276.80;1765085;81;21595;-73
2021/11/24 10:49:50;;;;;;;17.20;11.65;;;;;;;6.52;88.80;101278.00;1765038;81;20978;-73
2021/11/24 10:52:32;;;;;;;21.00;12.30;;;;;;;6.50;88.77;101269.83;1764888;81;20993;-73
2021/11/24 10:55:21;;;;;;;25.12;16.12;;;;;;;6.50;88.74;101278.63;1765505;79;21030;-74
2021/11/24 10:58:01;;;;;;;27.20;18.30;;;;;;;6.44;88.71;101273.78;1771749;79;21619;-74
2021/11/24 11:00:40;;;;;;;22.98;15.15;;;;;;;6.43;88.68;101276.57;1763985;81;21523;-74
2021/11/24 11:03:09;;;;;;;22.05;14.10;;;;;;;6.41;88.64;101271.38;1764949;80;20979;-74
2021/11/24 11:05:35;;;;;;;31.20;16.97;;;;;;;6.44;88.59;101272.46;1766410;78;21085;-73
2021/11/24 11:08:05;;;;;;;42.93;22.65;;;;;;;6.46;88.58;101274.52;1792553;79;20964;-73
2021/11/24 11:10:38;;;;;;;52.88;29.55;;;;;;;6.51;88.54;101271.00;1770004;79;21006;-73
2021/11/24 11:13:14;;;;;;;48.78;27.62;;;;;;;6.54;88.51;101265.45;1768296;79;21650;-73
2021/11/24 11:15:54;;;;;;;49.20;31.55;;;;;;;6.60;88.49;101258.00;1765364;80;20971;-73
2021/11/24 11:18:32;;;;;;;58.73;37.30;;;;;;;6.59;88.46;101256.30;1765952;81;21538;-74
2021/11/24 11:32:32;;;;;;;16.90;11.33;;;;;;;7.16;88.24;101239.63;1799597;79;22074;-74
2021/11/24 11:34:58;;;;;;;16.70;11.30;;;;;;;7.11;88.20;101236.50;1795166;80;20922;-74
2021/11/24 11:37:24;;;;;;;21.30;13.53;;;;;;;7.09;88.17;101237.13;1795177;80;21778;-73
2021/11/24 11:39:50;;;;;;;20.57;14.15;;;;;;;7.07;88.10;101235.09;1795386;80;20937;-74
2021/11/24 11:42:17;;;;;;;18.82;12.90;;;;;;;7.09;88.07;101229.64;1795063;80;20945;-74
2021/11/24 11:44:43;;;;;;;14.20;10.35;;;;;;;7.09;88.04;101225.66;1795150;80;20954;-74
2021/11/24 11:47:09;;;;;;;18.37;12.07;;;;;;;7.00;87.96;101229.94;1795163;80;21719;-74
2021/11/24 11:49:37;;;;;;;17.50;12.03;;;;;;;6.94;87.95;101223.80;1795247;79;21262;-74
2021/11/24 11:52:06;;;;;;;17.62;10.72;;;;;;;6.87;87.90;101226.11;1795089;79;21002;-73
2021/11/24 11:54:32;;;;;;;17.32;11.80;;;;;;;6.78;87.87;101223.37;1795150;79;21517;-73
2021/11/24 11:57:04;;;;;;;19.55;12.53;;;;;;;6.74;87.82;101228.56;1795164;79;20942;-73
2021/11/24 11:59:35;;;;;;;23.20;14.47;;;;;;;6.68;87.80;101229.08;1795010;80;21005;-73
2021/11/24 12:02:04;;;;;;;21.23;13.72;;;;;;;6.67;87.75;101230.03;1795143;80;21130;-73
2021/11/24 12:04:46;;;;;;;20.68;13.88;;;;;;;6.67;87.75;101228.70;1795146;80;20982;-73
2021/11/24 12:07:16;;;;;;;23.27;14.58;;;;;;;6.65;87.71;101221.38;1773341;80;21060;-73
2021/11/24 12:09:50;;;;;;;32.13;21.55;;;;;;;6.66;87.69;101216.41;1764117;81;21513;-73
2021/11/24 12:12:33;;;;;;;29.67;20.27;;;;;;;6.67;87.64;101211.48;1760831;81;21057;-73
2021/11/24 12:15:28;;;;;;;29.57;19.00;;;;;;;6.68;87.64;101214.50;1765443;80;21512;-73
2021/11/24 12:18:00;;;;;;;17.40;11.43;;;;;;;6.72;87.62;101215.94;1755533;79;21073;-73
2021/11/24 12:20:37;;;;;;;19.75;14.35;;;;;;;6.73;87.58;101207.84;1764566;80;21103;-73
2021/11/24 12:23:00;;;;;;;18.32;13.80;;;;;;;6.69;87.54;101205.56;1784331;79;21029;-74
2021/11/24 12:25:35;;;;;;;17.70;12.75;;;;;;;6.69;87.52;101197.13;1769534;80;20874;-74
2021/11/24 12:28:06;;;;;;;18.50;14.25;;;;;;;6.70;87.51;101201.95;1759737;80;21642;-73
2021/11/24 12:30:47;;;;;;;24.87;16.87;;;;;;;6.70;87.54;101197.49;1763673;80;21034;-73
2021/11/24 12:33:26;;;;;;;31.95;20.85;;;;;;;6.74;87.51;101195.44;1742163;81;21008;-73
2021/11/24 12:36:11;;;;;;;22.70;13.15;;;;;;;6.75;87.48;101191.83;1740459;81;21083;-73
2021/11/24 12:38:44;;;;;;;34.13;19.82;;;;;;;6.76;87.47;101199.63;1738814;81;21040;-73
2021/11/24 12:41:16;;;;;;;24.92;16.35;;;;;;;6.75;87.45;101205.92;1738525;81;21145;-72
2021/11/24 12:43:49;;;;;;;32.35;19.07;;;;;;;6.72;87.42;101201.36;1747516;81;21023;-72
2021/11/24 12:46:25;;;;;;;35.95;21.17;;;;;;;6.68;87.41;101190.64;1745503;80;21046;-72
2021/11/24 12:49:01;;;;;;;31.50;19.98;;;;;;;6.68;87.40;101190.64;1747104;81;21549;-72
2021/11/24 12:51:36;;;;;;;22.05;15.43;;;;;;;6.70;87.39;101190.02;1759688;81;21070;-72
2021/11/24 12:54:06;;;;;;;61.63;30.05;;;;;;;6.68;87.36;101185.34;1747813;81;21777;-72
2021/11/24 12:56:39;;;;;;;;;;;;;;;6.66;87.34;101187.26;1753532;81;21480;-74
2021/11/24 12:59:13;;;;;;;36.25;19.55;;;;;;;6.62;87.37;101177.88;1767738;81;20740;-73
2021/11/24 13:01:42;;;;;;;56.85;26.45;;;;;;;6.57;87.33;101178.75;1737532;81;21579;-72
2021/11/24 13:04:18;;;;;;;25.23;12.13;;;;;;;6.51;87.34;101179.59;1741350;81;21561;-73
2021/11/24 13:06:54;;;;;;;25.82;14.75;;;;;;;6.45;87.31;101176.13;1751740;81;21722;-73
2021/11/24 13:09:22;;;;;;;22.55;12.13;;;;;;;6.37;87.30;101182.52;1740610;81;21047;-73
2021/11/24 13:12:03;;;;;;;17.42;11.05;;;;;;;6.30;87.28;101178.68;1759889;81;21518;-73
2021/11/24 13:14:38;;;;;;;14.87;10.50;;;;;;;6.25;87.27;101178.22;1744655;81;21298;-74
2021/11/24 13:17:20;;;;;;;14.63;8.65;;;;;;;6.22;87.26;101178.95;1740131;81;21060;-73
2021/11/24 13:19:55;;;;;;;17.50;10.48;;;;;;;6.19;87.23;101177.41;1738626;81;21108;-73
2021/11/24 13:22:49;;;;;;;16.17;9.68;;;;;;;6.15;87.22;101181.25;1741359;81;21003;-73
2021/11/24 13:25:30;;;;;;;17.65;11.50;;;;;;;6.14;87.24;101182.20;1739133;81;21478;-73
2021/11/24 13:28:05;;;;;;;18.77;10.72;;;;;;;6.10;87.25;101179.44;1746983;81;21595;-73
2021/11/24 13:30:44;;;;;;;21.10;12.88;;;;;;;6.11;87.24;101176.31;1738712;81;21001;-73
2021/11/24 13:33:25;;;;;;;22.15;15.98;;;;;;;6.09;87.22;101164.51;1738486;81;21212;-74
2021/11/24 13:36:11;;;;;;;25.57;17.42;;;;;;;6.06;87.22;101164.75;1738480;81;21757;-74
2021/11/24 13:38:42;;;;;;;34.65;24.47;;;;;;;6.05;87.23;101161.77;1741623;81;21078;-73
2021/11/24 13:41:21;;;;;;;23.20;17.98;;;;;;;6.04;87.24;101158.75;1741236;81;21000;-73
2021/11/24 13:43:53;;;;;;;14.15;9.70;;;;;;;6.03;87.25;101158.38;1741768;81;21003;-73
2021/11/24 13:46:27;;;;;;;16.00;9.23;;;;;;;6.02;87.26;101147.42;1738507;81;21127;-73
2021/11/24 13:49:09;;;;;;;12.85;9.28;;;;;;;6.02;87.25;101150.08;1738180;81;21639;-73
2021/11/24 13:51:38;;;;;;;15.65;9.88;;;;;;;6.02;87.24;101146.10;1762408;81;21054;-73
2021/11/24 13:54:18;;;;;;;19.90;11.03;;;;;;;6.04;87.25;101145.52;1741311;80;21563;-73
2021/11/24 13:56:54;;;;;;;14.63;9.93;;;;;;;6.04;87.26;101145.52;1754443;81;20995;-73
2021/11/24 13:59:23;;;;;;;18.12;10.68;;;;;;;6.06;87.29;101148.02;1738919;81;21158;-72
2021/11/24 14:01:49;;;;;;;17.70;10.98;;;;;;;6.07;87.28;101153.21;1739076;81;21138;-73
2021/11/24 14:04:21;;;;;;;17.10;11.00;;;;;;;6.10;87.27;101148.98;1748581;81;21703;-73
2021/11/24 14:06:50;;;;;;;16.70;11.22;;;;;;;6.11;87.29;101138.77;1746535;80;21127;-73
2021/11/24 14:09:21;;;;;;;18.32;10.78;;;;;;;6.14;87.31;101137.19;1761102;81;21003;-73
2021/11/24 14:12:09;;;;;;;24.87;15.45;;;;;;;6.15;87.30;101134.91;1747680;80;21013;-73
2021/11/24 14:14:56;;;;;;;53.95;29.82;;;;;;;6.17;87.32;101132.97;1753432;80;21525;-73
2021/11/24 14:17:48;;;;;;;112.03;55.28;;;;;;;6.17;87.32;101135.61;1750030;80;21042;-73